createdAt,value
2019-01-25T08:24:45.480Z,7.37
2019-01-25T08:27:13.012Z,8.27
2019-01-25T08:29:40.557Z,8.33
2019-01-25T08:32:08.356Z,8.67
2019-01-25T08:34:36.033Z,8.63
2019-01-25T08:37:03.599Z,8.93
2019-01-25T08:39:31.223Z,6.17
2019-01-25T08:41:58.741Z,6.23
2019-01-25T08:44:26.298Z,7.70
2019-01-25T08:46:53.885Z,8.60
2019-01-25T08:49:21.409Z,7.80
2019-01-25T08:51:49.076Z,8.27
2019-01-25T08:54:16.638Z,9.73
2019-01-25T08:56:44.340Z,10.53
2019-01-25T08:59:11.979Z,10.20
2019-01-25T09:01:39.494Z,9.93
2019-01-25T09:04:07.028Z,13.03
2019-01-25T09:06:34.895Z,7.50
2019-01-25T09:09:04.977Z,8.87
2019-01-25T09:11:32.528Z,7.77
2019-01-25T09:14:00.156Z,6.40
2019-01-25T09:16:27.698Z,7.00
2019-01-25T09:18:55.293Z,8.20
2019-01-25T09:21:22.857Z,10.53
2019-01-25T09:23:50.399Z,10.13
2019-01-25T09:26:17.922Z,13.73
2019-01-25T09:28:45.802Z,11.93
2019-01-25T09:31:13.342Z,9.87
2019-01-25T09:33:40.884Z,6.60
2019-01-25T09:36:08.465Z,16.03
2019-01-25T09:38:36.030Z,11.20
2019-01-25T09:41:03.665Z,9.03
2019-01-25T09:43:32.441Z,7.47
2019-01-25T09:45:59.980Z,9.67
2019-01-25T09:48:27.555Z,7.73
2019-01-25T09:50:55.149Z,8.00
2019-01-25T09:53:22.694Z,8.33
2019-01-25T09:55:50.223Z,7.90
2019-01-25T09:58:18.110Z,6.80
2019-01-25T10:00:58.608Z,8.23
2019-01-25T10:03:26.166Z,7.80
2019-01-25T10:05:53.697Z,7.63
2019-01-25T10:08:40.735Z,8.87
2019-01-25T10:11:08.406Z,7.43
2019-01-25T10:13:35.990Z,8.97
2019-01-25T10:16:04.078Z,8.90
2019-01-25T10:18:31.663Z,11.13
2019-01-25T10:20:59.388Z,9.60
2019-01-25T10:23:32.001Z,11.27
2019-01-25T10:25:59.623Z,9.33
2019-01-25T10:28:33.356Z,8.90
2019-01-25T10:31:01.005Z,9.57
2019-01-25T10:33:28.601Z,9.47
2019-01-25T10:35:56.218Z,10.33
2019-01-25T10:38:23.789Z,8.90
2019-01-25T10:40:51.447Z,8.67
2019-01-25T10:43:18.985Z,7.57
2019-01-25T10:45:46.522Z,9.53
2019-01-25T10:48:14.093Z,8.50
2019-01-25T10:50:41.679Z,7.40
2019-01-25T10:53:09.313Z,8.00
2019-01-25T10:55:36.893Z,8.27
2019-01-25T10:58:05.660Z,8.27
2019-01-25T11:00:33.309Z,8.00
2019-01-25T11:03:00.886Z,8.20
2019-01-25T11:05:28.729Z,8.67
2019-01-25T11:07:56.449Z,8.20
2019-01-25T11:10:24.081Z,9.27
2019-01-25T11:12:51.649Z,7.77
2019-01-25T11:15:20.989Z,7.90
2019-01-25T11:17:49.364Z,8.47
2019-01-25T11:20:21.163Z,8.73
2019-01-25T11:22:48.741Z,8.73
2019-01-25T11:25:22.123Z,10.20
2019-01-25T11:27:49.683Z,9.30
2019-01-25T11:30:17.307Z,8.73
2019-01-25T11:32:44.826Z,10.20
2019-01-25T11:35:12.475Z,10.43
2019-01-25T11:37:40.089Z,10.03
2019-01-25T11:40:21.323Z,9.87
2019-01-25T11:42:48.928Z,7.53
2019-01-25T11:45:20.159Z,8.33
2019-01-25T11:47:52.693Z,8.93
2019-01-25T11:50:20.546Z,8.63
2019-01-25T11:52:48.109Z,8.07
2019-01-25T11:55:16.038Z,9.87
2019-01-25T11:57:43.824Z,11.60
2019-01-25T12:00:17.511Z,10.07
2019-01-25T12:02:45.065Z,12.97
2019-01-25T12:05:14.761Z,11.30
2019-01-25T12:07:42.286Z,10.53
2019-01-25T12:10:11.151Z,9.93
2019-01-25T12:12:38.731Z,10.83
2019-01-25T12:15:09.178Z,12.07
2019-01-25T12:17:36.745Z,9.70
2019-01-25T12:20:06.308Z,10.37
2019-01-25T12:22:35.784Z,11.33
2019-01-25T12:25:03.893Z,8.73
2019-01-25T12:27:31.451Z,9.57
2019-01-25T12:29:59.029Z,11.27
2019-01-25T12:32:26.587Z,9.77
2019-01-25T12:34:54.347Z,10.80
2019-01-25T12:37:21.931Z,11.27
2019-01-25T12:39:49.523Z,10.10
2019-01-25T12:42:17.100Z,11.50
2019-01-25T12:44:44.682Z,8.83
2019-01-25T12:47:12.239Z,11.27
2019-01-25T12:49:39.830Z,11.40
2019-01-25T12:52:09.307Z,10.37
2019-01-25T12:54:36.858Z,10.13
2019-01-25T12:57:04.444Z,10.60
2019-01-25T12:59:32.059Z,9.80
2019-01-25T13:02:00.147Z,9.87
2019-01-25T13:04:27.729Z,9.77
2019-01-25T13:06:55.396Z,9.90
2019-01-25T13:09:22.976Z,11.33
2019-01-25T13:11:50.620Z,11.43
2019-01-25T13:14:18.890Z,12.23
2019-01-25T13:16:46.483Z,10.57
2019-01-25T13:19:14.592Z,10.63
2019-01-25T13:21:42.224Z,9.97
2019-01-25T13:24:09.812Z,9.77
2019-01-25T13:26:37.366Z,9.10
2019-01-25T13:29:05.035Z,10.37
2019-01-25T13:31:32.649Z,8.57
2019-01-25T13:34:00.249Z,9.87
2019-01-25T13:36:27.805Z,10.40
2019-01-25T13:38:55.464Z,11.57
2019-01-25T13:41:27.272Z,13.40
2019-01-25T13:43:52.384Z,11.73
2019-01-25T13:46:19.913Z,10.17
2019-01-25T13:48:47.619Z,10.50
2019-01-25T13:51:15.200Z,10.93
2019-01-25T13:53:42.789Z,12.20
2019-01-25T13:56:10.385Z,11.67
2019-01-25T13:58:38.060Z,11.13
2019-01-25T14:01:05.588Z,12.00
2019-01-25T14:03:33.201Z,15.20
2019-01-25T14:06:00.786Z,13.47
2019-01-25T14:08:28.332Z,14.27
2019-01-25T14:10:56.081Z,14.00
2019-01-25T14:13:23.694Z,14.10
2019-01-25T14:15:51.241Z,13.80
2019-01-25T14:18:18.834Z,13.60
2019-01-25T14:20:46.398Z,15.87
2019-01-25T14:23:13.916Z,14.53
2019-01-25T14:25:41.483Z,16.57
2019-01-25T14:28:08.986Z,15.73
2019-01-25T14:30:41.457Z,15.53
2019-01-25T14:33:09.064Z,13.53
2019-01-25T14:35:37.633Z,14.97
2019-01-25T14:38:06.401Z,17.50
2019-01-25T14:40:33.997Z,17.57
2019-01-25T14:43:01.515Z,20.83
2019-01-25T14:45:29.070Z,23.73
2019-01-25T14:47:56.601Z,17.47
2019-01-25T14:50:25.322Z,17.47
2019-01-25T14:52:52.856Z,15.90
2019-01-25T14:55:22.395Z,15.10
2019-01-25T14:57:50.069Z,16.43
2019-01-25T15:00:17.577Z,15.93
2019-01-25T15:02:45.353Z,17.43
2019-01-25T15:05:15.709Z,15.87
2019-01-25T15:07:43.291Z,22.17
2019-01-25T15:10:13.621Z,20.00
2019-01-25T15:12:41.309Z,16.90
2019-01-25T15:15:10.421Z,17.43
2019-01-25T15:17:37.949Z,21.83
2019-01-25T15:20:07.460Z,21.63
2019-01-25T15:22:35.081Z,21.43
2019-01-25T15:25:02.733Z,25.60
2019-01-25T15:27:30.288Z,26.63
2019-01-25T15:29:57.872Z,25.13
2019-01-25T15:32:25.396Z,23.43
2019-01-25T15:34:52.969Z,35.20
2019-01-25T15:37:22.255Z,29.53
2019-01-25T15:39:49.919Z,31.93
2019-01-25T15:42:17.436Z,31.37
2019-01-25T15:44:44.975Z,30.53
2019-01-25T15:47:12.626Z,31.13
2019-01-25T15:49:40.184Z,31.40
2019-01-25T15:52:07.985Z,30.27
2019-01-25T15:54:35.599Z,26.40
2019-01-25T15:57:03.152Z,27.37
2019-01-25T15:59:31.432Z,28.97
2019-01-25T16:01:59.091Z,33.87
2019-01-25T16:04:26.695Z,36.43
2019-01-25T16:06:54.264Z,42.30
2019-01-25T16:09:23.668Z,45.80
2019-01-25T16:11:51.160Z,44.60
2019-01-25T16:14:18.729Z,35.23
2019-01-25T16:16:46.315Z,30.77
2019-01-25T16:19:13.843Z,30.73
2019-01-25T16:21:41.448Z,45.27
2019-01-25T16:24:09.072Z,39.97
2019-01-25T16:26:36.612Z,37.10
2019-01-25T16:29:04.284Z,33.30
2019-01-25T16:31:31.850Z,29.60
2019-01-25T16:33:59.404Z,34.53
2019-01-25T16:36:26.949Z,31.67
2019-01-25T16:38:54.498Z,28.67
2019-01-25T16:41:22.086Z,28.23
2019-01-25T16:43:49.613Z,34.40
2019-01-25T16:46:17.236Z,27.17
2019-01-25T16:48:44.920Z,24.67
2019-01-25T16:51:12.542Z,23.73
2019-01-25T16:53:40.183Z,21.40
2019-01-25T16:56:07.759Z,19.83
2019-01-25T16:58:35.301Z,19.97
2019-01-25T17:01:02.864Z,26.17
2019-01-25T17:03:30.438Z,24.90
2019-01-25T17:05:57.978Z,30.07
2019-01-25T17:08:25.542Z,34.10
2019-01-25T17:10:53.269Z,30.37
2019-01-25T17:13:20.849Z,29.70
2019-01-25T17:15:48.380Z,29.30
2019-01-25T17:18:15.963Z,29.60
2019-01-25T17:20:43.600Z,30.03
2019-01-25T17:23:11.148Z,26.63
2019-01-25T17:25:38.731Z,25.87
2019-01-25T17:28:07.904Z,28.77
2019-01-25T17:30:36.176Z,26.63
2019-01-25T17:33:03.821Z,26.77
2019-01-25T17:35:31.599Z,29.80
2019-01-25T17:37:59.211Z,24.27
2019-01-25T17:40:31.901Z,27.20
2019-01-25T17:42:59.607Z,20.73
2019-01-25T17:45:27.201Z,24.10
2019-01-25T17:47:54.914Z,26.93
2019-01-25T17:50:22.479Z,26.37
2019-01-25T17:52:50.083Z,26.57
2019-01-25T17:55:18.078Z,27.87
2019-01-25T17:57:45.609Z,27.33
2019-01-25T18:00:20.569Z,26.80
2019-01-25T18:02:48.122Z,27.27
2019-01-25T18:05:15.648Z,24.77
2019-01-25T18:07:44.283Z,27.67
2019-01-25T18:10:14.124Z,25.53
2019-01-25T18:12:41.755Z,25.23
2019-01-25T18:15:10.509Z,26.03
2019-01-25T18:17:38.074Z,25.07
2019-01-25T18:20:07.198Z,26.10
2019-01-25T18:22:34.837Z,26.00
